Time;durP1;ratioP1;P1;durP2;ratioP2;P2;SDS_P1;SDS_P2;PMS_P1;PMS_P2;Temp;Humidity;BMP_temperature;BMP_pressure;BME280_temperature;BME280_humidity;BME280_pressure;Samples;Min_cycle;Max_cycle;Signal;HPM_P1;HPM_P2
2024/01/31 00:01:17;;;;;;;10.57;7.67;;;9.40;99.90;;;;;;4990041;28;20943;-52
2024/01/31 00:03:45;;;;;;;8.00;6.80;;;9.40;99.90;;;;;;5009074;28;20200;-52
2024/01/31 00:06:11;;;;;;;9.43;7.07;;;9.30;99.90;;;;;;5003493;28;20193;-52
2024/01/31 00:08:37;;;;;;;8.67;7.63;;;9.20;99.90;;;;;;4986504;28;21018;-52
2024/01/31 00:11:03;;;;;;;7.20;6.47;;;9.30;99.90;;;;;;5009688;28;20278;-52
2024/01/31 00:13:29;;;;;;;9.20;6.83;;;9.20;99.90;;;;;;5007856;28;20562;-52
2024/01/31 00:15:54;;;;;;;9.70;6.50;;;9.20;99.90;;;;;;5013876;28;20643;-52
2024/01/31 00:18:20;;;;;;;7.10;6.40;;;9.30;99.90;;;;;;5009666;28;20211;-52
2024/01/31 00:20:45;;;;;;;12.00;7.70;;;9.40;99.90;;;;;;5003111;28;20195;-52
2024/01/31 00:23:11;;;;;;;9.77;6.13;;;9.30;99.90;;;;;;5011194;28;20269;-53
2024/01/31 00:25:36;;;;;;;8.83;7.23;;;9.30;99.90;;;;;;4995524;28;20200;-52
2024/01/31 00:28:02;;;;;;;11.23;6.83;;;9.30;99.90;;;;;;5012996;28;20199;-51
2024/01/31 00:30:28;;;;;;;8.23;6.67;;;9.20;99.90;;;;;;5007285;28;20874;-51
2024/01/31 00:32:53;;;;;;;12.27;7.57;;;9.20;99.90;;;;;;5010985;28;20199;-51
2024/01/31 00:35:19;;;;;;;10.40;7.37;;;9.20;99.90;;;;;;5018687;28;20206;-52
2024/01/31 00:37:44;;;;;;;8.10;6.93;;;9.20;99.90;;;;;;5005274;28;20298;-52
2024/01/31 00:40:10;;;;;;;6.83;5.90;;;9.10;99.90;;;;;;5017733;28;20208;-53
2024/01/31 00:42:38;;;;;;;7.47;5.50;;;9.20;99.90;;;;;;5011912;28;20204;-52
2024/01/31 00:45:06;;;;;;;9.23;6.50;;;9.30;99.90;;;;;;5021841;28;20244;-52
2024/01/31 00:47:32;;;;;;;6.90;5.67;;;9.30;99.90;;;;;;5017254;28;20805;-59
2024/01/31 00:49:58;;;;;;;8.13;5.20;;;9.20;99.90;;;;;;5001112;28;20197;-52
2024/01/31 00:52:24;;;;;;;7.17;4.33;;;9.20;99.90;;;;;;5001495;28;20211;-59
2024/01/31 00:54:49;;;;;;;8.10;5.17;;;9.20;99.90;;;;;;4999616;28;20261;-52
2024/01/31 00:57:16;;;;;;;7.80;5.53;;;9.40;99.90;;;;;;5016475;28;20217;-52
2024/01/31 00:59:42;;;;;;;8.47;5.33;;;9.30;99.90;;;;;;5010093;28;20878;-51
2024/01/31 01:02:08;;;;;;;6.53;4.90;;;9.40;99.90;;;;;;5020281;28;20876;-52
2024/01/31 01:04:34;;;;;;;5.80;5.10;;;9.50;99.90;;;;;;5000139;28;21158;-52
2024/01/31 01:07:00;;;;;;;5.50;5.00;;;9.40;99.90;;;;;;5015778;28;20207;-51
2024/01/31 01:09:25;;;;;;;6.40;5.07;;;9.40;99.90;;;;;;5007144;28;20218;-53
2024/01/31 01:11:51;;;;;;;6.37;4.47;;;9.20;99.90;;;;;;5012745;28;20211;-53
2024/01/31 01:14:17;;;;;;;5.77;4.00;;;9.20;99.90;;;;;;5011656;28;20723;-59
2024/01/31 01:16:43;;;;;;;8.13;4.77;;;9.30;99.90;;;;;;5020506;28;20219;-52
2024/01/31 01:19:09;;;;;;;6.20;4.63;;;9.20;99.90;;;;;;5013099;28;20292;-52
2024/01/31 01:21:35;;;;;;;4.67;4.20;;;9.30;99.90;;;;;;5017526;28;20259;-52
2024/01/31 01:24:01;;;;;;;7.90;5.03;;;9.30;99.90;;;;;;4978198;28;20208;-52
2024/01/31 01:26:26;;;;;;;4.47;4.03;;;9.30;99.90;;;;;;5006288;28;20202;-52
2024/01/31 01:28:52;;;;;;;6.93;4.77;;;9.20;99.90;;;;;;5010758;28;20210;-50
2024/01/31 01:31:18;;;;;;;5.30;4.40;;;9.20;99.90;;;;;;5013879;28;20207;-51
2024/01/31 01:33:44;;;;;;;9.40;4.73;;;9.30;99.90;;;;;;5020583;28;20266;-51
2024/01/31 01:36:09;;;;;;;7.87;4.73;;;9.40;99.90;;;;;;5013409;28;20199;-51
2024/01/31 01:38:36;;;;;;;7.33;4.77;;;9.40;99.90;;;;;;5018315;28;20206;-53
2024/01/31 01:41:02;;;;;;;5.93;4.73;;;9.30;99.90;;;;;;5010282;28;20191;-52
2024/01/31 01:43:28;;;;;;;7.23;4.27;;;9.40;99.90;;;;;;5012329;28;21001;-52
2024/01/31 01:46:06;;;;;;;4.43;4.03;;;9.30;99.90;;;;;;5016103;28;20215;-52
2024/01/31 01:48:31;;;;;;;4.50;3.77;;;9.40;99.90;;;;;;5013767;28;20672;-52
2024/01/31 01:50:57;;;;;;;5.87;4.70;;;9.30;99.90;;;;;;5021288;28;20208;-51
2024/01/31 01:53:23;;;;;;;3.90;3.60;;;9.20;99.90;;;;;;5013550;28;20204;-51
2024/01/31 01:55:48;;;;;;;6.23;3.60;;;9.20;99.90;;;;;;5009111;28;20191;-51
2024/01/31 01:58:15;;;;;;;4.27;3.37;;;9.20;99.90;;;;;;5010417;28;20739;-53
2024/01/31 02:00:43;;;;;;;4.37;3.50;;;9.20;99.90;;;;;;4996642;28;20286;-52
2024/01/31 02:03:09;;;;;;;4.13;3.37;;;9.10;99.90;;;;;;5011387;28;20565;-51
2024/01/31 02:05:35;;;;;;;3.33;3.00;;;9.00;99.90;;;;;;5013981;28;20203;-51
2024/01/31 02:08:00;;;;;;;3.07;2.73;;;9.00;99.90;;;;;;5007957;28;20228;-51
2024/01/31 02:10:26;;;;;;;3.23;2.77;;;8.90;99.90;;;;;;5017785;28;20284;-51
2024/01/31 02:12:51;;;;;;;2.53;2.00;;;8.90;99.90;;;;;;5019998;28;20203;-52
2024/01/31 02:15:17;;;;;;;2.13;2.00;;;8.70;99.90;;;;;;5011228;28;20243;-52
2024/01/31 02:17:42;;;;;;;2.10;2.00;;;8.60;99.90;;;;;;5010657;28;20785;-52
2024/01/31 02:20:08;;;;;;;1.90;1.80;;;8.60;99.90;;;;;;4998576;28;20417;-51
2024/01/31 02:22:34;;;;;;;2.70;1.70;;;8.60;99.90;;;;;;5006403;28;20203;-52
2024/01/31 02:25:01;;;;;;;1.97;1.87;;;8.60;99.90;;;;;;5019376;28;20191;-52
2024/01/31 02:27:27;;;;;;;2.13;1.90;;;8.50;99.90;;;;;;4999350;28;20199;-51
2024/01/31 02:29:52;;;;;;;2.10;2.00;;;8.40;99.90;;;;;;5015314;28;20536;-51
2024/01/31 02:32:17;;;;;;;1.60;1.50;;;8.50;99.90;;;;;;5019120;28;20670;-51
2024/01/31 02:34:43;;;;;;;3.07;2.10;;;8.40;99.90;;;;;;5014228;28;20241;-51
2024/01/31 02:37:08;;;;;;;2.40;2.13;;;8.30;99.90;;;;;;5009333;28;20289;-52
2024/01/31 02:39:34;;;;;;;1.63;1.50;;;8.40;99.90;;;;;;5011950;28;20987;-51
2024/01/31 02:42:00;;;;;;;2.43;1.90;;;8.30;99.90;;;;;;4995026;28;20268;-52
2024/01/31 02:44:25;;;;;;;2.70;2.03;;;8.20;99.90;;;;;;4994720;28;20226;-51
2024/01/31 02:46:51;;;;;;;1.87;1.77;;;8.20;99.90;;;;;;5016247;28;20207;-53
2024/01/31 02:49:16;;;;;;;1.73;1.63;;;8.30;99.90;;;;;;5015681;28;20863;-51
2024/01/31 02:51:42;;;;;;;2.10;1.80;;;8.30;99.90;;;;;;5006653;28;20607;-52
2024/01/31 02:54:07;;;;;;;3.13;1.67;;;8.30;99.90;;;;;;5014047;28;20218;-52
2024/01/31 02:56:33;;;;;;;2.13;2.03;;;8.20;99.90;;;;;;4995521;28;20665;-52
2024/01/31 02:58:58;;;;;;;2.47;2.10;;;8.20;99.90;;;;;;5013909;28;20258;-52
2024/01/31 03:01:23;;;;;;;1.70;1.60;;;8.10;99.90;;;;;;5014998;28;20237;-52
2024/01/31 03:03:49;;;;;;;1.60;1.50;;;8.10;99.90;;;;;;5013356;28;20192;-52
2024/01/31 03:06:15;;;;;;;1.77;1.67;;;8.10;99.90;;;;;;5013217;28;20563;-53
2024/01/31 03:08:40;;;;;;;2.07;1.53;;;8.10;99.90;;;;;;5009974;28;20286;-52
2024/01/31 03:11:06;;;;;;;1.57;1.47;;;8.20;99.90;;;;;;5009656;28;20195;-61
2024/01/31 03:13:31;;;;;;;1.07;1.07;;;8.20;99.90;;;;;;5010157;28;20829;-52
2024/01/31 03:15:56;;;;;;;1.00;1.00;;;8.20;99.90;;;;;;4991488;28;20226;-51
2024/01/31 03:18:22;;;;;;;1.30;1.10;;;8.10;99.90;;;;;;4993725;28;20230;-52
2024/01/31 03:20:47;;;;;;;1.20;1.20;;;8.20;99.90;;;;;;5004947;28;20989;-52
2024/01/31 03:23:13;;;;;;;2.47;1.20;;;8.20;99.90;;;;;;5011178;28;20214;-52
2024/01/31 03:25:38;;;;;;;4.37;1.87;;;8.00;99.90;;;;;;5013179;28;20302;-57
2024/01/31 03:28:04;;;;;;;1.27;1.17;;;8.00;99.90;;;;;;5007974;28;20262;-52
2024/01/31 03:30:29;;;;;;;1.17;1.00;;;7.90;99.90;;;;;;5012876;28;20203;-52
2024/01/31 03:32:55;;;;;;;1.00;0.90;;;7.90;99.90;;;;;;5012284;28;20291;-53
2024/01/31 03:35:20;;;;;;;0.97;0.70;;;7.80;99.90;;;;;;5013595;28;20199;-52
2024/01/31 03:37:46;;;;;;;4.17;1.20;;;7.70;99.90;;;;;;5009228;28;20215;-52
2024/01/31 03:40:11;;;;;;;0.63;0.63;;;7.70;99.90;;;;;;5011975;28;20191;-52
2024/01/31 03:42:37;;;;;;;0.93;0.80;;;7.70;99.90;;;;;;4990960;28;20191;-52
2024/01/31 03:45:04;;;;;;;1.03;1.00;;;7.70;99.90;;;;;;5008712;28;20231;-52
2024/01/31 03:47:30;;;;;;;1.27;1.20;;;7.70;99.90;;;;;;4994954;28;20203;-52
2024/01/31 03:49:55;;;;;;;0.70;0.70;;;7.70;99.90;;;;;;4992816;28;20727;-53
2024/01/31 03:52:22;;;;;;;1.27;1.20;;;7.60;99.90;;;;;;5012436;28;20211;-52
2024/01/31 03:54:48;;;;;;;1.40;1.30;;;7.60;99.90;;;;;;4991983;28;20298;-52
2024/01/31 03:57:14;;;;;;;2.13;1.00;;;7.50;99.90;;;;;;5015806;28;20812;-52
2024/01/31 03:59:39;;;;;;;1.23;1.00;;;7.50;99.90;;;;;;5012302;28;20223;-52
2024/01/31 04:02:05;;;;;;;1.23;0.93;;;7.50;99.90;;;;;;5024972;28;20254;-52
2024/01/31 04:04:31;;;;;;;1.17;1.07;;;7.50;99.90;;;;;;5015483;28;20202;-52
2024/01/31 04:06:57;;;;;;;3.03;1.37;;;7.50;99.90;;;;;;5012555;28;20227;-52
2024/01/31 04:09:22;;;;;;;0.80;0.80;;;7.50;99.90;;;;;;5020283;28;20233;-51
2024/01/31 04:11:48;;;;;;;1.20;1.10;;;7.50;99.90;;;;;;5013810;28;20208;-51
2024/01/31 04:14:13;;;;;;;1.83;1.07;;;7.50;99.90;;;;;;5019806;28;20244;-51
2024/01/31 04:16:39;;;;;;;2.40;1.30;;;7.50;99.90;;;;;;5009235;28;20236;-51
2024/01/31 04:19:04;;;;;;;2.30;1.83;;;7.50;99.90;;;;;;5000271;28;20199;-51
2024/01/31 04:21:30;;;;;;;1.70;1.30;;;7.50;99.90;;;;;;4984580;28;20728;-52
2024/01/31 04:23:55;;;;;;;2.80;1.50;;;7.50;99.90;;;;;;5009981;28;20256;-51
2024/01/31 04:26:21;;;;;;;2.40;1.20;;;7.50;99.90;;;;;;5014475;28;20860;-51
2024/01/31 04:28:46;;;;;;;1.30;1.20;;;7.40;99.90;;;;;;5013327;28;20197;-51
2024/01/31 04:31:13;;;;;;;1.20;1.20;;;7.40;99.90;;;;;;5019286;28;20200;-51
2024/01/31 04:33:38;;;;;;;3.10;1.30;;;7.40;99.90;;;;;;5014992;28;20842;-52
2024/01/31 04:36:04;;;;;;;1.13;1.13;;;7.40;99.90;;;;;;5015008;28;20215;-51
2024/01/31 04:38:30;;;;;;;2.43;2.23;;;7.40;99.90;;;;;;5016902;28;20832;-52
2024/01/31 04:40:55;;;;;;;1.70;0.90;;;7.40;99.90;;;;;;4998870;28;20422;-51
2024/01/31 04:43:21;;;;;;;0.93;0.90;;;7.40;99.90;;;;;;5015151;28;20203;-52
2024/01/31 04:45:46;;;;;;;0.80;0.80;;;7.30;99.90;;;;;;5010387;28;20192;-52
2024/01/31 04:48:12;;;;;;;0.97;0.97;;;7.30;99.90;;;;;;5017209;28;20210;-52
2024/01/31 04:50:38;;;;;;;0.80;0.80;;;7.30;99.90;;;;;;5010897;28;20202;-52
2024/01/31 04:53:03;;;;;;;1.00;0.70;;;7.50;99.90;;;;;;5006916;28;20720;-52
2024/01/31 04:55:29;;;;;;;1.70;1.10;;;7.60;99.90;;;;;;5012517;28;20693;-52
2024/01/31 04:57:54;;;;;;;1.13;0.83;;;7.20;99.90;;;;;;5014764;28;20277;-51
2024/01/31 05:00:23;;;;;;;1.13;0.70;;;7.10;99.90;;;;;;5011212;28;20199;-52
2024/01/31 05:02:49;;;;;;;3.10;1.20;;;7.10;99.90;;;;;;5009429;28;21040;-51
2024/01/31 05:05:15;;;;;;;0.93;0.93;;;7.30;99.90;;;;;;5007195;28;20921;-51
2024/01/31 05:07:41;;;;;;;1.67;0.77;;;7.30;99.90;;;;;;5017838;28;20270;-51
2024/01/31 05:10:07;;;;;;;2.40;1.53;;;7.10;99.90;;;;;;5013757;28;20294;-57
2024/01/31 05:12:33;;;;;;;1.57;1.03;;;6.80;99.90;;;;;;5000200;28;20203;-59
2024/01/31 05:14:58;;;;;;;2.07;1.20;;;6.70;99.90;;;;;;5016933;28;20216;-52
2024/01/31 05:17:24;;;;;;;1.00;0.87;;;6.70;99.90;;;;;;5014815;28;20529;-53
2024/01/31 05:19:49;;;;;;;1.27;1.17;;;6.60;99.90;;;;;;5011393;28;20200;-51
2024/01/31 05:22:14;;;;;;;0.87;0.87;;;6.60;99.90;;;;;;5002112;28;20227;-51
2024/01/31 05:24:40;;;;;;;2.57;1.20;;;6.50;99.90;;;;;;5011694;28;20211;-51
2024/01/31 05:27:06;;;;;;;4.83;1.33;;;6.60;99.90;;;;;;5006707;28;20600;-56
2024/01/31 05:29:32;;;;;;;1.60;1.33;;;6.60;99.90;;;;;;5016758;28;20203;-51
2024/01/31 05:31:57;;;;;;;0.70;0.70;;;6.50;99.90;;;;;;5015070;28;20294;-52
2024/01/31 05:34:23;;;;;;;2.40;1.30;;;6.30;99.90;;;;;;5020077;28;20570;-52
2024/01/31 05:36:49;;;;;;;0.60;0.60;;;6.00;99.90;;;;;;5009873;28;20281;-52
2024/01/31 05:39:14;;;;;;;1.70;0.73;;;6.00;99.90;;;;;;4996688;28;20750;-53
2024/01/31 05:41:44;;;;;;;0.60;0.57;;;5.90;99.90;;;;;;5016114;28;20199;-52
2024/01/31 05:44:10;;;;;;;1.03;0.80;;;5.90;99.90;;;;;;5017128;28;20786;-52
2024/01/31 05:46:35;;;;;;;0.80;0.80;;;5.80;99.90;;;;;;5011435;28;20203;-52
2024/01/31 05:49:04;;;;;;;1.13;0.53;;;5.80;99.90;;;;;;5017584;28;20195;-52
2024/01/31 05:51:30;;;;;;;2.10;0.57;;;5.80;99.90;;;;;;5011973;28;20234;-52
2024/01/31 05:53:55;;;;;;;1.93;0.70;;;5.90;99.90;;;;;;5011458;28;20281;-52
2024/01/31 05:56:21;;;;;;;0.87;0.87;;;5.90;99.90;;;;;;5009106;28;20204;-50
2024/01/31 05:58:47;;;;;;;1.23;0.70;;;6.00;99.90;;;;;;5008221;28;20636;-50
2024/01/31 06:01:12;;;;;;;1.10;1.00;;;6.00;99.90;;;;;;5014341;28;20305;-53
2024/01/31 06:03:38;;;;;;;1.33;0.90;;;6.10;99.90;;;;;;4996103;28;20219;-50
2024/01/31 06:06:04;;;;;;;1.07;1.00;;;6.10;99.90;;;;;;5005668;28;20207;-50
2024/01/31 06:08:30;;;;;;;0.73;0.73;;;6.10;99.90;;;;;;5012933;28;20306;-51
2024/01/31 06:11:02;;;;;;;1.10;0.90;;;6.10;99.90;;;;;;5016670;28;20290;-52
2024/01/31 06:13:32;;;;;;;3.63;1.23;;;6.10;99.90;;;;;;5010854;28;20200;-52
2024/01/31 06:15:57;;;;;;;1.10;1.00;;;6.10;99.90;;;;;;5008504;28;20209;-52
2024/01/31 06:18:23;;;;;;;0.70;0.70;;;6.10;99.90;;;;;;4990104;28;20452;-51
2024/01/31 06:20:51;;;;;;;0.70;0.70;;;6.10;99.90;;;;;;5012107;28;20203;-51
2024/01/31 06:23:17;;;;;;;2.03;1.00;;;6.10;99.90;;;;;;5016330;28;20198;-52
2024/01/31 06:25:42;;;;;;;0.73;0.73;;;6.00;99.90;;;;;;5010345;28;20203;-52
2024/01/31 06:28:08;;;;;;;7.03;1.10;;;6.00;99.90;;;;;;4983111;28;20623;-52
2024/01/31 06:30:41;;;;;;;1.50;0.83;;;6.00;99.90;;;;;;4996856;28;20200;-52
2024/01/31 06:33:10;;;;;;;0.70;0.70;;;6.00;99.90;;;;;;5010702;28;20195;-52
2024/01/31 06:35:38;;;;;;;1.77;0.90;;;6.00;99.90;;;;;;4991681;28;20831;-54
2024/01/31 06:38:04;;;;;;;2.83;0.87;;;6.00;99.90;;;;;;5011458;28;20208;-53
2024/01/31 06:40:30;;;;;;;3.43;1.10;;;6.00;99.90;;;;;;5015630;28;20195;-52
2024/01/31 06:42:56;;;;;;;1.17;1.07;;;6.00;99.90;;;;;;5015480;28;20984;-50
2024/01/31 06:45:24;;;;;;;0.70;0.70;;;6.00;99.90;;;;;;5011330;28;20592;-50
2024/01/31 06:47:50;;;;;;;2.93;1.30;;;6.00;99.90;;;;;;5012702;28;20192;-50
2024/01/31 06:50:16;;;;;;;1.83;1.20;;;6.00;99.90;;;;;;5012329;28;20199;-51
2024/01/31 06:52:41;;;;;;;1.30;1.23;;;6.00;99.90;;;;;;4991937;28;20203;-52
2024/01/31 06:55:07;;;;;;;0.83;0.80;;;6.00;99.90;;;;;;5015997;28;21044;-52
2024/01/31 06:57:34;;;;;;;0.80;0.80;;;5.90;99.90;;;;;;5014013;28;20219;-52
2024/01/31 07:00:00;;;;;;;2.03;1.17;;;5.90;99.90;;;;;;5008746;28;20229;-52
2024/01/31 07:02:26;;;;;;;0.67;0.67;;;5.90;99.90;;;;;;5013466;28;20261;-53
2024/01/31 07:04:51;;;;;;;4.70;0.83;;;5.90;99.90;;;;;;5010741;28;20203;-52
2024/01/31 07:07:17;;;;;;;0.80;0.80;;;5.90;99.90;;;;;;4997080;28;20195;-52
2024/01/31 07:09:42;;;;;;;1.23;0.70;;;5.90;99.90;;;;;;5011240;28;20271;-52
2024/01/31 07:12:08;;;;;;;0.73;0.70;;;5.90;99.90;;;;;;5009607;28;20204;-52
2024/01/31 07:14:34;;;;;;;1.23;1.13;;;5.90;99.90;;;;;;5009917;28;20204;-52
2024/01/31 07:16:59;;;;;;;2.10;0.63;;;5.90;99.90;;;;;;5013762;28;20227;-55
2024/01/31 07:19:24;;;;;;;1.27;0.87;;;5.80;99.90;;;;;;5011486;28;20453;-53
2024/01/31 07:21:50;;;;;;;1.20;0.90;;;5.90;99.90;;;;;;5015363;28;20237;-52
2024/01/31 07:24:16;;;;;;;0.50;0.50;;;5.90;99.90;;;;;;5011469;28;20690;-52
2024/01/31 07:26:42;;;;;;;4.10;0.77;;;5.90;99.90;;;;;;4997852;28;20196;-52
2024/01/31 07:29:08;;;;;;;1.17;0.53;;;5.90;99.90;;;;;;4996054;28;20203;-52
2024/01/31 07:31:34;;;;;;;0.50;0.50;;;5.80;99.90;;;;;;5008628;28;20841;-52
2024/01/31 07:33:59;;;;;;;0.53;0.53;;;5.60;99.90;;;;;;5015886;28;20211;-52
2024/01/31 07:36:25;;;;;;;0.67;0.67;;;5.60;99.90;;;;;;5016049;28;20263;-52
2024/01/31 07:38:50;;;;;;;0.63;0.63;;;5.60;99.90;;;;;;5015785;28;20206;-52
2024/01/31 07:41:16;;;;;;;1.00;0.70;;;5.50;99.90;;;;;;5011937;28;20247;-52
2024/01/31 07:43:42;;;;;;;2.50;0.90;;;5.50;99.90;;;;;;5013278;28;20239;-52
2024/01/31 07:46:08;;;;;;;0.80;0.67;;;5.50;99.90;;;;;;5016089;28;20253;-52
2024/01/31 07:48:33;;;;;;;2.60;0.40;;;5.50;99.90;;;;;;4996355;28;20203;-52
2024/01/31 07:51:03;;;;;;;0.97;0.30;;;5.50;99.90;;;;;;4991001;28;20180;-52
2024/01/31 07:53:29;;;;;;;1.10;0.50;;;5.40;99.90;;;;;;5019859;28;20203;-53
2024/01/31 07:55:54;;;;;;;0.43;0.43;;;5.50;99.90;;;;;;5023548;28;20738;-51
2024/01/31 07:58:19;;;;;;;0.53;0.53;;;5.50;99.90;;;;;;5012401;28;20207;-52
2024/01/31 08:00:45;;;;;;;1.30;0.67;;;5.50;99.90;;;;;;5005913;28;20274;-58
2024/01/31 08:03:10;;;;;;;0.80;0.57;;;5.50;99.90;;;;;;4995416;28;20270;-52
2024/01/31 08:05:36;;;;;;;1.67;0.70;;;5.50;99.90;;;;;;5019663;28;20249;-53
2024/01/31 08:08:01;;;;;;;0.63;0.63;;;5.40;99.90;;;;;;5013245;28;21051;-52
2024/01/31 08:10:27;;;;;;;2.47;0.80;;;5.50;99.90;;;;;;5011786;28;20208;-61
2024/01/31 08:12:52;;;;;;;0.80;0.70;;;5.50;99.90;;;;;;4989451;28;20375;-53
2024/01/31 08:15:18;;;;;;;1.37;1.00;;;5.50;99.90;;;;;;5001030;28;20732;-54
2024/01/31 08:17:44;;;;;;;0.40;0.40;;;5.70;99.90;;;;;;4993093;28;20215;-53
2024/01/31 08:20:10;;;;;;;1.13;0.70;;;5.70;99.90;;;;;;5010641;28;20203;-53
2024/01/31 08:22:36;;;;;;;0.67;0.67;;;5.60;99.90;;;;;;5019296;28;20191;-52
2024/01/31 08:25:01;;;;;;;1.33;0.97;;;5.70;99.90;;;;;;4987826;28;20199;-56
2024/01/31 08:27:27;;;;;;;1.03;0.93;;;5.90;99.90;;;;;;5006744;28;20222;-57
2024/01/31 08:29:52;;;;;;;1.90;1.10;;;5.80;99.90;;;;;;5012656;28;20211;-57
2024/01/31 08:32:18;;;;;;;2.07;1.00;;;6.00;99.90;;;;;;5010067;28;20252;-52
2024/01/31 08:34:44;;;;;;;1.10;0.93;;;6.00;99.90;;;;;;5010154;28;20196;-54
2024/01/31 08:37:09;;;;;;;0.97;0.60;;;5.80;99.90;;;;;;5012225;28;20211;-54
2024/01/31 08:39:35;;;;;;;0.63;0.50;;;5.70;99.90;;;;;;5002769;28;20196;-53
2024/01/31 08:42:00;;;;;;;1.90;1.10;;;6.20;99.90;;;;;;4999683;28;21427;-56
2024/01/31 08:44:26;;;;;;;2.83;0.97;;;6.00;99.90;;;;;;4991686;28;20306;-53
2024/01/31 08:46:52;;;;;;;2.20;1.13;;;6.10;99.90;;;;;;5012331;28;20226;-57
2024/01/31 08:49:17;;;;;;;2.23;0.87;;;6.00;99.90;;;;;;5011954;28;20231;-55
2024/01/31 08:51:43;;;;;;;1.60;1.03;;;6.00;99.90;;;;;;5015699;28;21138;-52
2024/01/31 08:54:08;;;;;;;2.53;0.83;;;5.80;99.90;;;;;;5017447;28;20195;-53
2024/01/31 08:56:34;;;;;;;0.83;0.60;;;6.00;99.90;;;;;;5017394;28;20207;-53
2024/01/31 08:59:00;;;;;;;1.30;0.53;;;5.90;99.90;;;;;;5014843;28;20207;-52
2024/01/31 09:01:26;;;;;;;0.40;0.40;;;6.00;99.90;;;;;;5017387;28;20246;-53
2024/01/31 09:03:51;;;;;;;0.77;0.60;;;5.90;99.90;;;;;;5016911;28;20215;-51
2024/01/31 09:06:17;;;;;;;3.50;0.50;;;6.00;99.90;;;;;;4997665;28;20191;-57
2024/01/31 09:08:43;;;;;;;0.93;0.70;;;5.60;99.90;;;;;;5011645;28;20234;-53
2024/01/31 09:11:08;;;;;;;1.80;0.63;;;5.40;99.90;;;;;;4990597;28;21031;-53
2024/01/31 09:13:35;;;;;;;0.70;0.37;;;5.20;99.90;;;;;;5001344;28;20208;-52
2024/01/31 09:16:01;;;;;;;0.40;0.40;;;5.20;99.90;;;;;;5020468;28;20207;-51
2024/01/31 09:18:28;;;;;;;2.73;0.60;;;5.00;99.90;;;;;;5015143;28;20302;-59
2024/01/31 09:20:53;;;;;;;0.60;0.50;;;5.00;99.90;;;;;;5019932;28;20962;-57
2024/01/31 09:23:19;;;;;;;3.30;0.50;;;5.00;99.90;;;;;;5000839;28;20198;-56
2024/01/31 09:25:44;;;;;;;0.70;0.70;;;5.10;99.90;;;;;;4990065;28;20692;-54
2024/01/31 09:28:10;;;;;;;0.77;0.50;;;5.10;99.90;;;;;;5011259;28;20215;-53
2024/01/31 09:30:35;;;;;;;0.37;0.37;;;5.10;99.90;;;;;;5012201;28;20207;-53
2024/01/31 09:33:01;;;;;;;2.67;0.70;;;5.20;99.90;;;;;;4990918;28;20195;-52
2024/01/31 09:35:26;;;;;;;1.77;1.07;;;5.30;99.90;;;;;;5054584;22;20306;-53
2024/01/31 09:37:52;;;;;;;2.03;0.60;;;5.30;99.90;;;;;;5030274;28;20230;-52
2024/01/31 09:40:19;;;;;;;2.03;0.63;;;5.30;99.90;;;;;;5030562;28;20203;-53
2024/01/31 09:42:45;;;;;;;1.03;0.37;;;5.40;99.90;;;;;;5030373;28;20292;-54
2024/01/31 09:45:14;;;;;;;4.47;0.60;;;5.40;99.90;;;;;;5029511;28;20229;-53
2024/01/31 09:47:42;;;;;;;0.33;0.30;;;5.40;99.90;;;;;;5028749;28;20203;-52
2024/01/31 09:50:08;;;;;;;0.30;0.30;;;5.30;99.90;;;;;;5029712;28;20306;-52
2024/01/31 09:52:35;;;;;;;0.83;0.40;;;5.40;99.90;;;;;;5028231;28;20278;-52
2024/01/31 09:55:04;;;;;;;0.93;0.93;;;5.50;99.90;;;;;;5032689;28;20210;-52
2024/01/31 09:57:30;;;;;;;2.87;0.50;;;5.60;99.90;;;;;;5032654;28;20301;-52
2024/01/31 09:59:57;;;;;;;0.57;0.53;;;5.60;99.90;;;;;;5031206;28;20329;-53
2024/01/31 10:02:22;;;;;;;1.33;0.57;;;5.60;99.90;;;;;;5032147;28;20191;-52
2024/01/31 10:04:49;;;;;;;1.03;0.30;;;5.60;99.90;;;;;;5031604;28;20936;-52
2024/01/31 10:07:22;;;;;;;0.53;0.53;;;5.70;99.90;;;;;;5030896;28;20234;-52
2024/01/31 10:09:48;;;;;;;6.90;1.37;;;5.60;99.90;;;;;;5031526;28;20202;-52
2024/01/31 10:12:15;;;;;;;38.83;14.93;;;5.50;99.90;;;;;;5031787;28;20206;-52
2024/01/31 10:14:42;;;;;;;4.40;1.57;;;5.60;99.90;;;;;;5027131;28;20206;-52
2024/01/31 10:17:07;;;;;;;2.07;1.00;;;5.60;99.90;;;;;;5031989;28;20202;-52
2024/01/31 10:19:33;;;;;;;3.63;0.90;;;5.70;99.90;;;;;;5027663;28;20970;-52
2024/01/31 10:21:59;;;;;;;2.40;0.80;;;5.70;99.90;;;;;;5030328;28;20353;-52
2024/01/31 10:24:24;;;;;;;1.07;0.83;;;5.80;99.90;;;;;;5029413;28;20206;-52
2024/01/31 10:26:50;;;;;;;0.70;0.70;;;5.90;99.90;;;;;;5029880;28;20206;-52
2024/01/31 10:29:17;;;;;;;2.50;1.87;;;5.80;99.90;;;;;;5030146;28;20210;-53
2024/01/31 10:31:44;;;;;;;17.07;8.33;;;5.90;99.90;;;;;;5030169;28;20194;-52
2024/01/31 10:34:10;;;;;;;1.13;0.77;;;5.90;99.90;;;;;;5031888;28;20202;-52
2024/01/31 10:36:36;;;;;;;2.53;1.63;;;5.90;99.90;;;;;;5043729;28;20726;-52
2024/01/31 10:39:03;;;;;;;3.23;0.90;;;5.90;99.90;;;;;;5049594;28;20377;-52
2024/01/31 10:41:29;;;;;;;2.00;1.20;;;6.00;99.90;;;;;;5043595;28;20289;-52
2024/01/31 10:43:58;;;;;;;2.10;1.00;;;5.90;99.90;;;;;;5026517;28;20201;-52
2024/01/31 10:46:23;;;;;;;1.17;1.07;;;6.00;99.90;;;;;;5049924;28;20183;-52
2024/01/31 10:48:49;;;;;;;2.23;0.97;;;5.80;99.90;;;;;;5043158;28;20205;-52
2024/01/31 10:51:16;;;;;;;2.73;1.00;;;5.70;99.90;;;;;;5044186;28;20194;-52
2024/01/31 10:53:43;;;;;;;1.70;1.40;;;5.60;99.90;;;;;;5051300;28;20229;-53
2024/01/31 10:56:10;;;;;;;1.43;1.30;;;5.40;99.90;;;;;;5053151;28;20568;-52
2024/01/31 10:58:36;;;;;;;2.27;1.20;;;5.10;99.90;;;;;;5052476;28;20694;-51
2024/01/31 11:01:03;;;;;;;7.47;1.87;;;4.80;99.90;;;;;;5032716;28;20314;-52
2024/01/31 11:03:29;;;;;;;6.87;1.93;;;4.70;99.90;;;;;;5050815;28;20194;-52
2024/01/31 11:05:55;;;;;;;5.90;1.93;;;4.60;99.90;;;;;;5032255;28;20209;-52
2024/01/31 11:08:21;;;;;;;2.03;1.70;;;4.60;99.90;;;;;;5051043;28;20209;-52
2024/01/31 11:10:48;;;;;;;4.97;1.43;;;4.60;99.90;;;;;;5049056;28;20198;-52
2024/01/31 11:13:14;;;;;;;7.27;2.10;;;4.60;99.90;;;;;;5044709;28;20284;-52
2024/01/31 11:15:40;;;;;;;3.93;1.50;;;4.70;99.90;;;;;;5050863;28;20190;-53
2024/01/31 11:18:10;;;;;;;8.90;2.20;;;4.80;99.90;;;;;;5052968;28;20214;-52
2024/01/31 11:20:44;;;;;;;5.80;1.53;;;4.80;99.90;;;;;;5048946;28;20194;-52
2024/01/31 11:23:17;;;;;;;5.37;1.50;;;4.90;99.90;;;;;;5051511;28;20197;-53
2024/01/31 11:25:46;;;;;;;2.33;1.73;;;4.90;99.90;;;;;;5051160;28;20209;-52
2024/01/31 11:28:12;;;;;;;3.83;1.37;;;4.90;99.90;;;;;;5046779;28;20202;-53
2024/01/31 11:30:39;;;;;;;5.17;1.60;;;4.90;99.90;;;;;;5048519;28;20198;-52
2024/01/31 11:33:05;;;;;;;3.33;1.13;;;4.80;99.90;;;;;;5044107;28;20202;-52
2024/01/31 11:35:31;;;;;;;3.70;2.00;;;4.80;99.90;;;;;;5050398;28;20274;-52
2024/01/31 11:37:57;;;;;;;3.37;1.53;;;4.80;99.90;;;;;;5050235;28;20241;-52
2024/01/31 11:40:23;;;;;;;6.90;1.97;;;4.80;99.90;;;;;;5046269;28;20314;-52
2024/01/31 11:42:50;;;;;;;2.93;1.83;;;4.90;99.90;;;;;;5050338;28;20897;-52
2024/01/31 11:45:15;;;;;;;4.93;1.47;;;4.90;99.90;;;;;;5050159;28;20423;-52
2024/01/31 11:47:42;;;;;;;4.87;1.73;;;5.00;99.90;;;;;;5044270;28;20252;-51
2024/01/31 11:50:08;;;;;;;5.37;1.73;;;5.00;99.90;;;;;;5046161;28;20606;-51
2024/01/31 11:52:33;;;;;;;3.77;1.43;;;5.00;99.90;;;;;;5028424;28;20206;-52
2024/01/31 11:54:59;;;;;;;3.90;1.30;;;5.00;99.90;;;;;;5036960;28;20197;-51
2024/01/31 11:57:26;;;;;;;5.80;2.00;;;5.00;99.90;;;;;;5032613;28;20206;-51
2024/01/31 11:59:53;;;;;;;3.53;1.67;;;5.20;99.90;;;;;;5048825;28;20214;-53
2024/01/31 12:02:19;;;;;;;4.97;1.77;;;5.30;99.90;;;;;;5049444;28;20644;-53
2024/01/31 12:04:55;;;;;;;2.43;1.20;;;5.20;99.90;;;;;;5043843;28;20259;-54
2024/01/31 12:07:21;;;;;;;3.60;1.63;;;5.40;99.90;;;;;;5047180;28;20284;-53
2024/01/31 12:09:47;;;;;;;5.23;1.27;;;5.50;99.90;;;;;;5050106;28;20276;-53
2024/01/31 12:12:13;;;;;;;4.60;1.50;;;5.70;99.90;;;;;;5049514;28;20210;-53
2024/01/31 12:14:39;;;;;;;2.83;1.90;;;5.60;99.90;;;;;;5036328;28;20207;-52
2024/01/31 12:17:24;;;;;;;2.23;1.17;;;5.50;99.90;;;;;;5040299;28;20210;-52
2024/01/31 12:20:00;;;;;;;3.97;1.40;;;5.40;99.90;;;;;;5047987;28;20983;-53
2024/01/31 12:22:26;;;;;;;4.10;1.30;;;5.70;99.90;;;;;;5046489;28;20388;-52
2024/01/31 12:24:52;;;;;;;6.23;1.40;;;5.60;99.90;;;;;;5049495;28;20206;-52
2024/01/31 12:27:17;;;;;;;4.07;1.60;;;5.40;99.90;;;;;;5049710;28;20203;-52
2024/01/31 12:29:46;;;;;;;3.47;1.77;;;5.50;99.90;;;;;;5050137;28;20759;-52
2024/01/31 12:32:12;;;;;;;5.63;1.90;;;5.50;99.90;;;;;;5030751;28;21089;-52
2024/01/31 12:34:37;;;;;;;6.37;2.13;;;5.50;99.90;;;;;;5041522;28;20233;-52
2024/01/31 12:37:03;;;;;;;4.97;1.73;;;5.70;99.90;;;;;;5046607;28;20237;-53
2024/01/31 12:39:29;;;;;;;5.47;1.33;;;5.60;99.90;;;;;;5029119;28;20473;-52
2024/01/31 12:41:54;;;;;;;3.00;1.03;;;5.50;99.90;;;;;;5053853;28;20208;-52
2024/01/31 12:44:20;;;;;;;5.63;0.93;;;5.50;99.90;;;;;;5051624;28;20224;-52
2024/01/31 12:46:46;;;;;;;4.50;1.43;;;5.60;99.90;;;;;;5049742;28;20195;-52
2024/01/31 12:49:12;;;;;;;7.13;2.03;;;5.80;99.90;;;;;;5051321;28;20210;-52
2024/01/31 12:51:37;;;;;;;6.50;1.67;;;5.90;99.90;;;;;;5048980;28;20190;-52